createdAt,value
2022-08-17T00:00:52.098Z,58.60
2022-08-17T00:03:28.095Z,57.67
2022-08-17T00:06:00.163Z,57.29
2022-08-17T00:08:35.104Z,57.58
2022-08-17T00:11:06.142Z,58.22
2022-08-17T00:13:40.270Z,58.61
2022-08-17T00:16:14.908Z,58.09
2022-08-17T00:18:58.111Z,58.23
2022-08-17T00:21:59.932Z,58.77
2022-08-17T00:24:18.018Z,59.14
2022-08-17T00:26:45.545Z,59.41
2022-08-17T00:29:19.740Z,59.16
2022-08-17T00:31:47.011Z,58.70
2022-08-17T00:34:13.807Z,59.05
2022-08-17T00:36:40.542Z,59.40
2022-08-17T00:39:07.233Z,59.39
2022-08-17T00:41:35.711Z,59.23
2022-08-17T00:44:05.607Z,59.50
2022-08-17T00:46:40.964Z,59.70
2022-08-17T00:49:10.887Z,60.39
2022-08-17T00:52:00.510Z,60.44
2022-08-17T00:54:40.963Z,61.19
2022-08-17T00:57:16.398Z,61.29
2022-08-17T00:59:55.979Z,60.88
2022-08-17T01:02:42.906Z,60.18
2022-08-17T01:05:18.559Z,59.99
2022-08-17T01:07:50.646Z,59.85
2022-08-17T01:10:59.083Z,59.73
2022-08-17T01:13:11.129Z,60.04
2022-08-17T01:15:48.232Z,60.62
2022-08-17T01:18:16.591Z,60.81
2022-08-17T01:20:55.034Z,61.25
2022-08-17T01:23:25.795Z,61.10
2022-08-17T01:25:56.053Z,61.12
2022-08-17T01:28:52.316Z,61.02
2022-08-17T01:31:13.111Z,60.23
2022-08-17T01:33:39.764Z,60.54
2022-08-17T01:36:08.271Z,60.96
2022-08-17T01:38:38.454Z,61.55
2022-08-17T01:41:16.514Z,61.11
2022-08-17T01:44:04.104Z,62.26
2022-08-17T01:46:35.982Z,62.16
2022-08-17T01:49:09.134Z,60.65
2022-08-17T01:51:36.098Z,60.83
2022-08-17T01:54:24.199Z,61.75
2022-08-17T01:57:09.999Z,62.58
2022-08-17T01:59:55.485Z,63.48
2022-08-17T02:02:41.445Z,63.81
2022-08-17T02:05:09.774Z,64.51
2022-08-17T02:07:59.675Z,64.71
2022-08-17T02:10:23.723Z,65.02
2022-08-17T02:12:50.479Z,65.04
2022-08-17T02:15:17.345Z,64.36
2022-08-17T02:17:44.164Z,64.50
2022-08-17T02:20:10.935Z,65.22
2022-08-17T02:22:43.385Z,64.71
2022-08-17T02:25:16.192Z,64.25
2022-08-17T02:27:43.096Z,64.33
2022-08-17T02:30:59.096Z,63.85
2022-08-17T02:33:04.295Z,63.25
2022-08-17T02:35:33.124Z,62.74
2022-08-17T02:38:01.433Z,63.75
2022-08-17T02:40:36.123Z,63.84
2022-08-17T02:43:05.246Z,64.43
2022-08-17T02:45:31.928Z,64.56
2022-08-17T02:47:58.588Z,65.47
2022-08-17T02:50:26.270Z,66.14
2022-08-17T02:53:01.443Z,65.93
2022-08-17T02:55:34.364Z,65.72
2022-08-17T02:58:01.750Z,65.68
2022-08-17T03:00:36.164Z,65.62
2022-08-17T03:03:06.125Z,66.29
2022-08-17T03:05:36.850Z,66.32
2022-08-17T03:08:07.360Z,66.70
2022-08-17T03:10:40.109Z,67.28
2022-08-17T03:13:06.845Z,66.71
2022-08-17T03:15:34.892Z,66.88
2022-08-17T03:18:03.711Z,67.57
2022-08-17T03:20:33.227Z,67.21
2022-08-17T03:23:01.905Z,66.23
2022-08-17T03:25:38.789Z,66.20
2022-08-17T03:28:06.357Z,65.94
2022-08-17T03:30:34.256Z,66.72
2022-08-17T03:33:04.468Z,66.81
2022-08-17T03:35:34.489Z,66.44
2022-08-17T03:38:02.090Z,65.47
2022-08-17T03:40:34.789Z,66.08
2022-08-17T03:43:19.969Z,66.43
2022-08-17T03:46:05.776Z,66.58
2022-08-17T03:48:55.822Z,66.25
2022-08-17T03:51:42.906Z,66.87
2022-08-17T03:54:46.763Z,66.75
2022-08-17T03:57:27.363Z,67.89
2022-08-17T03:59:55.531Z,67.78
2022-08-17T04:02:29.386Z,67.41
2022-08-17T04:04:57.517Z,67.25
2022-08-17T04:07:29.305Z,67.23
2022-08-17T04:09:57.918Z,68.01
2022-08-17T04:12:32.011Z,68.13
2022-08-17T04:14:59.714Z,68.12
2022-08-17T04:17:29.342Z,68.47
2022-08-17T04:19:57.011Z,68.17
2022-08-17T04:22:32.377Z,67.86
2022-08-17T04:25:16.221Z,67.53
2022-08-17T04:27:42.919Z,66.78
2022-08-17T04:30:10.739Z,67.16
2022-08-17T04:33:06.243Z,66.77
2022-08-17T04:35:42.170Z,67.02
2022-08-17T04:38:12.428Z,66.74
2022-08-17T04:40:57.910Z,66.22
2022-08-17T04:43:31.434Z,66.20
2022-08-17T04:46:05.938Z,66.47
2022-08-17T04:48:42.563Z,65.26
2022-08-17T04:51:21.484Z,66.38
2022-08-17T04:53:54.281Z,65.76
2022-08-17T04:56:23.340Z,67.80
2022-08-17T04:59:00.150Z,68.17
2022-08-17T05:01:31.821Z,68.39
2022-08-17T05:04:33.220Z,68.04
2022-08-17T05:06:54.131Z,67.89
2022-08-17T05:09:21.526Z,67.55
2022-08-17T05:11:52.104Z,67.37
2022-08-17T05:14:18.773Z,67.55
2022-08-17T05:16:48.170Z,66.61
2022-08-17T05:19:14.828Z,67.77
2022-08-17T05:21:41.505Z,67.89
2022-08-17T05:24:13.514Z,68.20
2022-08-17T05:26:54.863Z,67.81
2022-08-17T05:29:21.964Z,67.87
2022-08-17T05:32:38.146Z,67.29
2022-08-17T05:35:00.411Z,67.31
2022-08-17T05:37:27.747Z,67.47
2022-08-17T05:39:54.504Z,67.26
2022-08-17T05:42:21.613Z,66.69
2022-08-17T05:44:48.356Z,66.63
2022-08-17T05:47:15.072Z,66.55
2022-08-17T05:49:41.719Z,65.82
2022-08-17T05:52:13.312Z,66.32
2022-08-17T05:55:07.043Z,64.91
2022-08-17T05:57:53.029Z,65.82
2022-08-17T06:00:31.346Z,65.63
2022-08-17T06:03:11.947Z,65.70
2022-08-17T06:05:59.765Z,66.58
2022-08-17T06:08:57.120Z,66.17
2022-08-17T06:11:45.543Z,65.71
2022-08-17T06:14:21.131Z,65.14
2022-08-17T06:16:58.615Z,64.66
2022-08-17T06:19:47.345Z,64.71
2022-08-17T06:22:20.082Z,63.75
2022-08-17T06:25:18.947Z,63.86
2022-08-17T06:28:00.110Z,63.88
2022-08-17T06:30:57.612Z,62.58
2022-08-17T06:33:35.338Z,61.50
2022-08-17T06:36:30.170Z,62.75
2022-08-17T06:39:09.349Z,61.85
2022-08-17T06:41:58.106Z,58.36
2022-08-17T06:44:51.149Z,60.54
2022-08-17T06:47:29.460Z,58.94
2022-08-17T06:50:18.494Z,57.65
2022-08-17T06:53:24.471Z,56.69
2022-08-17T06:56:08.862Z,56.76
2022-08-17T06:58:40.277Z,59.47
2022-08-17T07:01:18.108Z,56.51
2022-08-17T07:03:54.699Z,55.58
2022-08-17T07:06:38.268Z,55.05
2022-08-17T07:09:17.345Z,55.22
2022-08-17T07:12:03.108Z,55.80
2022-08-17T07:14:45.950Z,53.21
2022-08-17T07:17:18.343Z,56.07
2022-08-17T07:19:49.115Z,57.03
2022-08-17T07:22:57.874Z,54.70
2022-08-17T07:25:21.499Z,53.84
2022-08-17T07:27:54.107Z,53.44
2022-08-17T07:30:25.454Z,53.95
2022-08-17T07:32:59.631Z,52.69
2022-08-17T07:35:31.342Z,51.97
2022-08-17T07:38:25.240Z,52.96
2022-08-17T07:41:01.885Z,50.45
2022-08-17T07:43:31.475Z,49.48
2022-08-17T07:46:33.893Z,49.29
2022-08-17T07:49:03.453Z,48.63
2022-08-17T07:51:55.377Z,47.93
2022-08-17T07:54:40.713Z,46.75
2022-08-17T07:57:13.541Z,45.99
2022-08-17T08:00:03.532Z,45.68
2022-08-17T08:02:38.596Z,46.79
2022-08-17T08:05:44.303Z,45.32
2022-08-17T08:08:33.085Z,44.34
2022-08-17T08:11:15.519Z,44.05
2022-08-17T08:13:45.560Z,42.39
2022-08-17T08:16:21.133Z,46.63
2022-08-17T08:18:54.169Z,43.12
2022-08-17T08:21:41.734Z,44.27
2022-08-17T08:24:19.738Z,42.33
2022-08-17T08:27:16.796Z,43.70
2022-08-17T08:30:10.459Z,41.66
2022-08-17T08:33:08.937Z,42.20
2022-08-17T08:36:03.342Z,42.26
2022-08-17T08:39:24.487Z,39.87
2022-08-17T08:41:59.253Z,40.44
2022-08-17T08:45:01.053Z,39.94
2022-08-17T08:48:23.168Z,40.78
2022-08-17T08:51:32.161Z,38.94
2022-08-17T08:54:31.402Z,39.35
2022-08-17T08:57:33.679Z,39.10
2022-08-17T09:00:23.257Z,39.13
2022-08-17T09:03:37.600Z,40.27
2022-08-17T09:06:38.908Z,39.53
2022-08-17T09:09:22.881Z,37.60
2022-08-17T09:12:29.802Z,39.54
2022-08-17T09:15:17.587Z,37.86
2022-08-17T09:19:00.954Z,36.71
2022-08-17T09:21:18.290Z,37.67
2022-08-17T09:24:11.297Z,38.92
2022-08-17T09:26:53.882Z,37.57
2022-08-17T09:29:26.355Z,38.04
2022-08-17T09:32:03.838Z,36.47
2022-08-17T09:34:43.637Z,35.66
2022-08-17T09:38:05.153Z,37.80
2022-08-17T09:40:47.347Z,35.16
2022-08-17T09:43:39.329Z,34.78
2022-08-17T09:46:18.485Z,34.85
2022-08-17T09:48:57.476Z,34.21
2022-08-17T09:51:51.903Z,33.93
2022-08-17T09:54:41.548Z,34.26
2022-08-17T09:57:47.443Z,34.26
2022-08-17T10:00:27.153Z,33.67
2022-08-17T10:03:35.130Z,34.84
2022-08-17T10:06:22.222Z,33.09
2022-08-17T10:08:54.986Z,32.14
2022-08-17T10:11:52.573Z,33.26
2022-08-17T10:14:53.378Z,33.25
2022-08-17T10:18:10.976Z,31.80
2022-08-17T10:21:17.369Z,31.66
2022-08-17T10:24:08.460Z,31.60
2022-08-17T10:26:56.743Z,30.78
2022-08-17T10:29:55.439Z,32.74
2022-08-17T10:32:59.187Z,32.76
2022-08-17T10:35:46.902Z,29.50
2022-08-17T10:38:46.386Z,31.19
2022-08-17T10:41:42.673Z,31.98
2022-08-17T10:44:37.158Z,28.59
2022-08-17T10:47:17.575Z,30.93
2022-08-17T10:49:53.474Z,29.70
2022-08-17T10:52:20.021Z,29.65
2022-08-17T10:55:06.255Z,29.47
2022-08-17T10:57:47.536Z,30.28
2022-08-17T11:00:39.698Z,30.08
2022-08-17T11:03:21.205Z,30.11
2022-08-17T11:06:32.844Z,30.42
2022-08-17T11:09:08.897Z,28.01
2022-08-17T11:12:08.053Z,27.27
2022-08-17T11:14:52.911Z,25.71
2022-08-17T11:18:01.464Z,26.72
2022-08-17T11:20:56.910Z,26.71
2022-08-17T11:23:52.972Z,26.08
2022-08-17T11:26:29.633Z,26.10
2022-08-17T11:29:09.592Z,25.36
2022-08-17T11:31:44.813Z,24.95
2022-08-17T11:34:23.083Z,26.16
2022-08-17T11:37:27.597Z,26.31
2022-08-17T11:40:25.343Z,26.67
2022-08-17T11:43:25.583Z,25.84
2022-08-17T11:46:57.260Z,24.54
2022-08-17T11:50:45.053Z,25.45
2022-08-17T11:53:39.611Z,25.03
2022-08-17T11:56:09.545Z,25.91
2022-08-17T11:58:43.030Z,26.84
2022-08-17T12:01:13.622Z,27.28
2022-08-17T12:03:55.520Z,26.50
2022-08-17T12:06:47.131Z,27.00
2022-08-17T12:09:24.882Z,28.88
2022-08-17T12:12:16.659Z,27.60
2022-08-17T12:15:12.893Z,25.92
2022-08-17T12:17:42.855Z,27.21
2022-08-17T12:20:37.721Z,26.20
2022-08-17T12:23:36.273Z,27.24
2022-08-17T12:26:15.920Z,25.51
2022-08-17T12:28:48.292Z,24.87
2022-08-17T12:31:28.710Z,25.86
2022-08-17T12:33:56.693Z,24.10
2022-08-17T12:36:28.380Z,24.58
2022-08-17T12:39:14.023Z,25.15
2022-08-17T12:41:50.419Z,25.59
2022-08-17T12:44:18.636Z,25.43
2022-08-17T12:47:22.169Z,25.49
2022-08-17T12:50:04.010Z,24.30
2022-08-17T12:52:32.913Z,23.30
2022-08-17T12:55:24.587Z,23.13
2022-08-17T12:57:59.634Z,24.56
2022-08-17T13:00:34.725Z,23.96
2022-08-17T13:03:26.361Z,26.20
2022-08-17T13:05:52.989Z,24.56
2022-08-17T13:08:27.780Z,23.21
2022-08-17T13:11:04.152Z,21.96
2022-08-17T13:13:42.261Z,22.89
2022-08-17T13:16:12.016Z,23.85
2022-08-17T13:18:49.576Z,23.51
2022-08-17T13:21:19.234Z,24.79
2022-08-17T13:24:38.078Z,24.62
2022-08-17T13:27:13.279Z,25.98
2022-08-17T13:29:54.630Z,25.02
2022-08-17T13:32:47.345Z,24.60
2022-08-17T13:35:47.672Z,25.21
2022-08-17T13:38:40.468Z,25.05
2022-08-17T13:41:07.525Z,25.67
2022-08-17T13:43:50.497Z,25.91
2022-08-17T13:46:31.879Z,26.54
2022-08-17T13:49:03.597Z,27.40
2022-08-17T13:51:41.516Z,28.93
2022-08-17T13:54:35.119Z,29.83
2022-08-17T13:57:12.499Z,27.80
2022-08-17T13:59:55.214Z,31.78
2022-08-17T14:02:27.780Z,30.45
2022-08-17T14:04:55.828Z,31.03
2022-08-17T14:07:36.105Z,30.62
2022-08-17T14:10:16.111Z,28.90
2022-08-17T14:12:45.317Z,27.44
2022-08-17T14:15:17.540Z,27.20
2022-08-17T14:17:44.419Z,26.79
2022-08-17T14:20:13.049Z,26.06
2022-08-17T14:22:49.534Z,28.10
2022-08-17T14:25:30.142Z,26.84
2022-08-17T14:27:57.089Z,27.60
2022-08-17T14:30:29.814Z,25.93
2022-08-17T14:32:58.835Z,26.98
2022-08-17T14:35:27.771Z,25.51
2022-08-17T14:37:54.769Z,25.88
2022-08-17T14:40:24.830Z,24.37
2022-08-17T14:42:55.070Z,26.34
2022-08-17T14:45:33.016Z,27.56
2022-08-17T14:48:07.667Z,27.33
2022-08-17T14:50:41.074Z,27.70
2022-08-17T14:53:11.077Z,27.66
2022-08-17T14:55:40.687Z,28.04
2022-08-17T14:58:09.941Z,28.60
2022-08-17T15:00:38.498Z,30.52
2022-08-17T15:03:05.353Z,30.03
2022-08-17T15:05:39.274Z,30.07
2022-08-17T15:08:07.585Z,30.68
2022-08-17T15:10:34.714Z,31.23
2022-08-17T15:13:01.946Z,31.13
2022-08-17T15:15:29.868Z,31.13
2022-08-17T15:17:58.258Z,32.35
2022-08-17T15:20:29.857Z,31.92
2022-08-17T15:22:58.956Z,32.19
2022-08-17T15:25:29.619Z,32.18
2022-08-17T15:27:56.736Z,32.37
2022-08-17T15:30:25.864Z,31.53
2022-08-17T15:32:54.939Z,33.10
2022-08-17T15:35:28.296Z,32.66
2022-08-17T15:38:08.113Z,33.92
2022-08-17T15:40:43.269Z,34.63
2022-08-17T15:43:17.159Z,32.77
2022-08-17T15:45:45.133Z,34.08
2022-08-17T15:48:41.136Z,34.35
2022-08-17T15:51:19.491Z,34.70
2022-08-17T15:53:51.763Z,34.70
2022-08-17T15:56:19.758Z,33.30
2022-08-17T15:58:48.693Z,34.66
2022-08-17T16:03:13.249Z,34.79
2022-08-17T16:04:26.910Z,34.76
2022-08-17T16:06:54.024Z,34.10
2022-08-17T16:09:20.629Z,36.38
2022-08-17T16:11:53.720Z,34.42
2022-08-17T16:14:24.029Z,35.18
2022-08-17T16:16:50.897Z,34.26
2022-08-17T16:19:17.846Z,35.38
2022-08-17T16:21:44.533Z,34.27
2022-08-17T16:24:13.280Z,34.59
2022-08-17T16:26:40.592Z,35.32
2022-08-17T16:29:08.416Z,35.66
2022-08-17T16:31:36.076Z,36.42
2022-08-17T16:34:17.333Z,34.40
2022-08-17T16:36:55.583Z,34.87
2022-08-17T16:39:28.892Z,34.01
2022-08-17T16:41:56.904Z,34.02
2022-08-17T16:44:24.760Z,32.42
2022-08-17T16:46:51.517Z,33.30
2022-08-17T16:49:35.297Z,34.01
2022-08-17T16:52:05.502Z,34.36
2022-08-17T16:54:51.499Z,34.23
2022-08-17T16:57:24.768Z,35.79
2022-08-17T16:59:53.544Z,35.12
2022-08-17T17:02:31.611Z,35.36
2022-08-17T17:05:16.092Z,36.13
2022-08-17T17:07:58.381Z,36.30
2022-08-17T17:10:48.797Z,33.75
2022-08-17T17:13:32.888Z,35.88
2022-08-17T17:16:28.801Z,36.20
2022-08-17T17:19:27.901Z,35.18
2022-08-17T17:22:15.213Z,35.49
2022-08-17T17:25:07.312Z,36.73
2022-08-17T17:27:57.262Z,37.27
2022-08-17T17:30:28.184Z,37.30
2022-08-17T17:33:04.986Z,37.24
2022-08-17T17:36:15.809Z,38.13
2022-08-17T17:38:53.039Z,37.57
2022-08-17T17:41:47.122Z,37.94
2022-08-17T17:44:28.744Z,37.48
2022-08-17T17:46:59.402Z,38.93
2022-08-17T17:49:38.233Z,38.12
2022-08-17T17:53:02.089Z,38.14
2022-08-17T17:56:06.857Z,39.31
2022-08-17T17:59:13.413Z,38.67
2022-08-17T18:02:47.345Z,38.57
2022-08-17T18:05:37.238Z,37.82
2022-08-17T18:08:11.529Z,38.07
2022-08-17T18:11:00.738Z,38.00
2022-08-17T18:13:56.562Z,38.42
2022-08-17T18:16:23.948Z,38.10
2022-08-17T18:18:52.612Z,38.63
2022-08-17T18:21:30.106Z,38.88
2022-08-17T18:24:06.893Z,39.33
2022-08-17T18:26:33.444Z,39.03
2022-08-17T18:29:07.764Z,39.45
2022-08-17T18:31:34.379Z,39.39
2022-08-17T18:37:26.434Z,39.81
2022-08-17T18:39:53.133Z,40.79
2022-08-17T18:42:28.160Z,40.35
2022-08-17T18:44:55.812Z,40.76
2022-08-17T18:47:29.543Z,41.45
2022-08-17T18:50:20.044Z,41.68
2022-08-17T18:52:50.610Z,41.75
2022-08-17T18:55:35.859Z,42.29
2022-08-17T18:58:25.702Z,42.74
2022-08-17T19:01:20.949Z,42.04
2022-08-17T19:04:27.395Z,42.72
2022-08-17T19:07:22.142Z,43.84
2022-08-17T19:10:46.314Z,43.27
2022-08-17T19:13:42.402Z,43.70
2022-08-17T19:17:14.402Z,44.64
2022-08-17T19:20:29.485Z,44.70
2022-08-17T19:23:37.593Z,44.67
2022-08-17T19:26:54.896Z,44.36
2022-08-17T19:29:38.407Z,44.23
2022-08-17T19:32:09.843Z,44.41
2022-08-17T19:34:39.087Z,43.88
2022-08-17T19:37:53.899Z,44.74
2022-08-17T19:41:00.878Z,44.67
2022-08-17T19:44:01.866Z,45.25
2022-08-17T19:46:50.069Z,45.18
2022-08-17T19:49:51.248Z,45.51
2022-08-17T19:52:52.742Z,46.14
2022-08-17T19:55:48.321Z,46.51
2022-08-17T19:58:53.151Z,46.43
2022-08-17T20:01:36.998Z,47.17
2022-08-17T20:04:16.147Z,46.98
2022-08-17T20:06:49.352Z,46.23
2022-08-17T20:09:34.195Z,46.96
2022-08-17T20:12:15.493Z,47.06
2022-08-17T20:14:53.733Z,47.80
2022-08-17T20:17:32.430Z,48.29
2022-08-17T20:20:21.234Z,47.62
2022-08-17T20:23:01.271Z,48.48
2022-08-17T20:25:34.830Z,48.76
2022-08-17T20:28:19.529Z,48.33
2022-08-17T20:30:50.713Z,48.41
2022-08-17T20:33:36.704Z,48.56
2022-08-17T20:36:22.575Z,49.30
2022-08-17T20:38:58.152Z,50.03
2022-08-17T20:41:29.971Z,50.46
2022-08-17T20:43:56.640Z,50.43
2022-08-17T20:46:38.312Z,51.29
2022-08-17T20:49:45.008Z,50.74
2022-08-17T20:52:36.169Z,51.09
2022-08-17T20:55:51.439Z,51.28
2022-08-17T20:58:46.505Z,51.44
2022-08-17T21:01:34.531Z,51.79
2022-08-17T21:04:27.494Z,51.81
2022-08-17T21:07:32.949Z,51.57
2022-08-17T21:10:25.579Z,50.72
2022-08-17T21:13:15.313Z,50.54
2022-08-17T21:15:43.784Z,51.25
2022-08-17T21:18:47.464Z,51.74
2022-08-17T21:21:51.022Z,51.79
2022-08-17T21:24:34.640Z,52.31
2022-08-17T21:27:23.628Z,52.16
2022-08-17T21:30:11.841Z,53.27
2022-08-17T21:32:42.779Z,53.40
2022-08-17T21:35:46.584Z,54.08
2022-08-17T21:38:19.469Z,53.89
2022-08-17T21:40:53.152Z,53.45
2022-08-17T21:43:32.352Z,53.69
2022-08-17T21:46:05.153Z,53.44
2022-08-17T21:48:43.905Z,53.87
2022-08-17T21:51:22.808Z,54.16
2022-08-17T21:53:53.043Z,54.37
2022-08-17T21:56:28.250Z,54.22
2022-08-17T21:59:08.467Z,54.58
2022-08-17T22:01:40.332Z,54.33
2022-08-17T22:04:11.330Z,54.60
2022-08-17T22:06:43.031Z,54.48
2022-08-17T22:09:32.124Z,54.80
2022-08-17T22:12:11.324Z,55.47
2022-08-17T22:14:52.607Z,55.04
2022-08-17T22:17:24.268Z,54.41
2022-08-17T22:20:16.821Z,54.67
2022-08-17T22:23:05.291Z,54.40
2022-08-17T22:25:37.245Z,55.14
2022-08-17T22:28:10.752Z,54.64
2022-08-17T22:30:58.012Z,54.40
2022-08-17T22:33:47.987Z,55.47
2022-08-17T22:36:26.869Z,54.96
2022-08-17T22:39:23.015Z,55.06
2022-08-17T22:42:00.738Z,54.14
2022-08-17T22:44:36.412Z,55.11
2022-08-17T22:47:29.354Z,54.71
2022-08-17T22:50:01.807Z,54.63
2022-08-17T22:53:02.795Z,55.16
2022-08-17T22:56:14.339Z,55.67
2022-08-17T22:59:14.503Z,55.20
2022-08-17T23:01:45.312Z,53.76
2022-08-17T23:04:35.403Z,54.66
2022-08-17T23:07:02.271Z,54.21
2022-08-17T23:09:29.943Z,55.37
2022-08-17T23:11:58.593Z,54.97
2022-08-17T23:14:31.562Z,55.72
2022-08-17T23:16:59.460Z,54.81
2022-08-17T23:19:28.523Z,55.56
2022-08-17T23:21:56.902Z,55.19
2022-08-17T23:24:27.720Z,55.47
2022-08-17T23:26:59.564Z,55.09
2022-08-17T23:29:29.298Z,55.34
2022-08-17T23:31:59.883Z,55.61
2022-08-17T23:34:28.129Z,56.05
2022-08-17T23:36:56.180Z,56.20
2022-08-17T23:39:28.035Z,56.14
2022-08-17T23:42:03.330Z,56.64
2022-08-17T23:44:30.978Z,57.02
2022-08-17T23:46:57.668Z,56.56
2022-08-17T23:49:25.250Z,56.98
2022-08-17T23:51:54.640Z,56.68
2022-08-17T23:54:46.615Z,57.54
2022-08-17T23:57:19.824Z,57.50
